.
WxDataArchive / Data Records for 2014-06-05
2014-06-04 June 2014 2014-06-06

Data Records for Thursday, 05 June 2014

Time	Temp	Chill	HIndex	Humid	Dewpt	 Wind 	HiWind	WindDir	Rain 	Barom
-----	----	-----	------	-----	-----	------	------	-------	-----	-----
00:00	56.6	56.6	56.6	93	54.6	0	1	112	0.00	29.842 
00:05	56.6	56.6	56.6	93	54.6	0	0	---	0.00	29.842 
00:10	56.5	56.5	56.5	94	54.8	0	0	---	0.00	29.842 
00:15	56.3	56.3	56.3	94	54.6	0	0	---	0.00	29.843 
00:20	56.2	56.2	56.2	94	54.5	0	0	---	0.00	29.843 
00:25	56.2	56.2	56.2	94	54.5	0	0	---	0.00	29.843 
00:30	56.0	56.0	56.0	94	54.3	0	0	---	0.00	29.845 
00:35	55.9	55.9	55.9	94	54.2	0	0	---	0.00	29.845 
00:40	55.7	55.7	55.7	94	54.0	0	0	---	0.00	29.845 
00:45	55.7	55.7	55.7	94	54.0	0	0	---	0.00	29.846 
00:50	55.7	55.7	55.7	94	54.0	0	0	---	0.00	29.846 
00:55	55.7	55.7	55.7	94	54.0	0	0	---	0.00	29.846 
01:00	55.7	55.7	55.7	94	54.0	0	0	---	0.00	29.848 
01:05	55.6	55.6	55.6	94	53.9	0	0	---	0.00	29.848 
01:10	55.6	55.6	55.6	94	53.9	0	0	---	0.00	29.848 
01:15	55.6	55.6	55.6	94	53.9	0	0	---	0.00	29.852 
01:20	55.6	55.6	55.6	94	53.9	0	0	---	0.00	29.852 
01:25	55.4	55.4	55.4	94	53.7	0	0	---	0.00	29.852 
01:30	55.6	55.6	55.6	95	54.2	0	0	---	0.00	29.859 
01:35	55.6	55.6	55.6	95	54.2	0	0	---	0.00	29.859 
01:40	55.4	55.4	55.4	95	54.0	0	0	---	0.00	29.859 
01:45	55.4	55.4	55.4	95	54.0	0	0	---	0.00	29.856 
01:50	55.4	55.4	55.4	95	54.0	0	0	---	0.00	29.856 
01:55	55.4	55.4	55.4	95	54.0	0	0	---	0.00	29.856 
02:00	55.3	55.3	55.3	95	53.9	0	0	---	0.00	29.862 
02:05	55.3	55.3	55.3	95	53.9	0	0	---	0.00	29.862 
02:10	55.0	55.0	55.0	95	53.6	0	0	---	0.00	29.862 
02:15	54.7	54.7	54.7	95	53.3	0	0	---	0.00	29.864 
02:20	54.5	54.5	54.5	95	53.1	0	0	---	0.00	29.864 
02:25	54.2	54.2	54.2	95	52.8	0	0	---	0.00	29.864 
02:30	54.1	54.1	54.1	95	52.7	0	0	---	0.00	29.864 
02:35	53.8	53.8	53.8	95	52.4	0	0	---	0.00	29.864 
02:40	53.8	53.8	53.8	95	52.4	0	0	---	0.00	29.864 
02:45	54.1	54.1	54.1	95	52.7	0	0	---	0.00	29.866 
02:50	54.5	54.5	54.5	95	53.1	0	0	---	0.00	29.866 
02:55	55.0	55.0	55.0	96	53.9	0	0	---	0.00	29.866 
03:00	55.1	55.1	55.1	95	53.7	0	0	---	0.00	29.870 
03:05	55.1	55.1	55.1	95	53.7	0	0	---	0.00	29.870 
03:10	55.0	55.0	55.0	95	53.6	0	0	---	0.00	29.870 
03:15	54.8	54.8	54.8	95	53.4	0	0	---	0.00	29.870 
03:20	54.7	54.7	54.7	95	53.3	0	0	---	0.00	29.870 
03:25	54.7	54.7	54.7	95	53.3	0	0	---	0.00	29.870 
03:30	54.7	54.7	54.7	95	53.3	0	0	---	0.00	29.871 
03:35	54.7	54.7	54.7	95	53.3	0	0	---	0.00	29.871 
03:40	54.5	54.5	54.5	95	53.1	0	0	---	0.00	29.871 
03:45	54.2	54.2	54.2	95	52.8	0	0	---	0.00	29.877 
03:50	53.9	53.9	53.9	95	52.5	0	0	---	0.00	29.877 
03:55	53.6	53.6	53.6	95	52.2	0	0	---	0.00	29.877 
04:00	53.6	53.6	53.6	95	52.2	0	0	---	0.00	29.883 
04:05	53.6	53.6	53.6	95	52.2	0	0	---	0.00	29.883 
04:10	53.5	53.5	53.5	95	52.1	0	0	---	0.00	29.883 
04:15	53.5	53.5	53.5	95	52.1	0	0	---	0.00	29.882 
04:20	53.3	53.3	53.3	95	51.9	0	0	---	0.00	29.882 
04:25	53.2	53.2	53.2	95	51.8	0	0	---	0.00	29.882 
04:30	52.9	52.9	52.9	95	51.5	0	0	---	0.00	29.884 
04:35	52.8	52.8	52.8	95	51.4	0	0	---	0.00	29.884 
04:40	52.6	52.6	52.6	95	51.2	0	0	---	0.00	29.884 
04:45	52.5	52.5	52.5	95	51.1	0	0	---	0.00	29.885 
04:50	52.5	52.5	52.5	95	51.1	0	0	---	0.00	29.885 
04:55	52.3	52.3	52.3	95	50.9	0	0	---	0.00	29.885 
05:00	52.0	52.0	52.0	95	50.6	0	0	---	0.00	29.885 
05:05	51.9	51.9	51.9	95	50.5	0	0	---	0.00	29.885 
05:10	51.7	51.7	51.7	95	50.3	0	0	---	0.00	29.885 
05:15	51.6	51.6	51.6	95	50.2	0	0	---	0.00	29.882 
05:20	51.4	51.4	51.4	95	50.0	0	0	---	0.00	29.882 
05:25	51.3	51.3	51.3	95	49.9	0	0	---	0.00	29.882 
05:30	51.1	51.1	51.1	95	49.7	0	0	---	0.00	29.885 
05:35	51.0	51.0	51.0	96	49.9	0	0	---	0.00	29.885 
05:40	51.0	51.0	51.0	96	49.9	0	0	---	0.00	29.885 
05:45	51.0	51.0	51.0	96	49.9	0	0	---	0.00	29.884 
05:50	50.8	50.8	50.8	95	49.4	0	0	---	0.00	29.884 
05:55	50.7	50.7	50.7	95	49.3	0	0	---	0.00	29.884 
06:00	50.5	50.5	50.5	96	49.4	0	0	---	0.00	29.891 
06:05	50.4	50.4	50.4	96	49.3	0	0	---	0.00	29.891 
06:10	50.4	50.4	50.4	96	49.3	0	0	---	0.00	29.891 
06:15	50.2	50.2	50.2	96	49.1	0	0	---	0.00	29.893 
06:20	50.4	50.4	50.4	96	49.3	0	0	---	0.00	29.893 
06:25	50.5	50.5	50.5	96	49.4	0	0	---	0.00	29.893 
06:30	51.3	51.3	51.3	96	50.2	0	0	---	0.00	29.887 
06:35	52.3	52.3	52.3	96	51.2	0	0	---	0.00	29.887 
06:40	52.9	52.9	52.9	96	51.8	0	1	112	0.00	29.887 
06:45	53.3	53.3	53.3	96	52.2	0	1	112	0.00	29.892 
06:50	53.6	53.6	53.6	96	52.5	0	1	112	0.00	29.892 
06:55	53.8	53.8	53.8	96	52.7	0	0	---	0.00	29.892 
07:00	53.9	53.9	53.9	96	52.8	0	0	---	0.00	29.898 
07:05	54.1	54.1	54.1	96	53.0	0	1	112	0.00	29.898 
07:10	54.2	54.2	54.2	96	53.1	0	1	112	0.00	29.898 
07:15	54.4	54.4	54.4	96	53.3	0	0	---	0.00	29.912 
07:20	54.5	54.5	54.5	96	53.4	0	0	---	0.00	29.912 
07:25	54.8	54.8	54.8	96	53.7	0	0	---	0.00	29.912 
07:30	55.4	55.4	55.4	96	54.3	0	2	112	0.00	29.915 
07:35	55.9	55.9	55.9	96	54.8	0	2	112	0.00	29.915 
07:40	56.0	56.0	56.0	96	54.9	0	2	112	0.00	29.915 
07:45	56.2	56.2	56.2	96	55.1	0	3	112	0.00	29.920 
07:50	56.2	56.2	56.2	96	55.1	1	3	112	0.00	29.920 
07:55	56.5	56.5	56.5	95	55.1	0	3	112	0.00	29.920 
08:00	56.9	56.9	56.9	95	55.5	0	2	112	0.00	29.926 
08:05	57.3	57.3	57.3	93	55.3	1	4	112	0.00	29.926 
08:10	57.8	57.8	57.8	90	54.9	0	3	112	0.00	29.926 
08:15	58.3	58.3	58.3	88	54.8	1	4	112	0.00	29.928 
08:20	58.9	58.9	58.9	85	54.4	1	4	112	0.00	29.928 
08:25	59.2	59.2	59.2	80	53.0	1	3	112	0.00	29.928 
08:30	59.6	59.6	59.6	79	53.1	1	4	112	0.00	29.923 
08:35	59.9	59.9	59.9	75	52.0	1	4	112	0.00	29.923 
08:40	60.2	60.2	60.2	73	51.5	2	6	112	0.00	29.923 
08:45	60.5	60.5	60.5	71	51.0	2	6	90	0.00	29.926 
08:50	60.9	60.9	60.9	68	50.3	2	7	90	0.00	29.926 
08:55	61.2	61.2	61.2	68	50.5	2	5	112	0.00	29.926 
09:00	61.6	61.6	61.6	65	49.7	2	6	68	0.00	29.931 
09:05	62.0	62.0	62.0	64	49.7	2	6	90	0.00	29.931 
09:10	62.3	62.3	62.3	63	49.5	2	6	90	0.00	29.931 
09:15	62.3	62.3	62.3	64	50.0	3	7	90	0.00	29.927 
09:20	62.7	62.7	62.7	63	49.9	2	5	90	0.00	29.927 
09:25	62.7	62.7	62.7	61	49.1	4	7	112	0.00	29.927 
09:30	62.9	62.9	62.9	62	49.7	2	5	90	0.00	29.928 
09:35	63.4	63.4	63.4	65	51.4	1	5	112	0.00	29.928 
09:40	64.0	64.0	64.0	61	50.3	2	6	112	0.00	29.928 
09:45	64.0	64.0	64.0	58	48.9	3	7	112	0.00	29.923 
09:50	63.5	63.5	63.5	58	48.5	4	10	112	0.00	29.923 
09:55	63.7	63.7	63.7	60	49.5	2	6	112	0.00	29.923 
10:00	64.2	64.2	64.2	60	50.0	2	4	90	0.00	29.910 
10:05	64.3	64.3	64.3	58	49.2	3	6	90	0.00	29.910 
10:10	64.3	64.3	64.3	58	49.2	3	6	90	0.00	29.910 
10:15	64.7	64.7	64.7	56	48.6	2	6	90	0.00	29.918 
10:20	64.8	64.8	64.8	55	48.2	2	5	90	0.00	29.918 
10:25	64.8	64.8	64.8	55	48.2	3	7	90	0.00	29.918 
10:30	65.0	65.0	65.0	54	47.9	2	5	90	0.00	29.929 
10:35	65.3	65.3	65.3	54	48.2	2	9	90	0.00	29.929 
10:40	65.8	65.8	65.8	54	48.7	1	5	112	0.00	29.929 
10:45	66.4	66.4	66.4	54	49.2	1	4	112	0.00	29.940 
10:50	66.8	66.8	66.8	57	51.1	0	3	112	0.00	29.940 
10:55	67.1	67.1	67.1	52	48.9	1	3	112	0.00	29.940 
11:00	67.3	67.3	67.3	50	48.0	2	5	112	0.00	29.941 
11:05	67.4	67.4	67.4	52	49.2	1	3	112	0.00	29.941 
11:10	67.4	67.4	67.4	52	49.2	1	2	112	0.00	29.941 
11:15	67.6	67.6	67.6	50	48.3	1	3	112	0.00	29.953 
11:20	67.9	67.9	67.9	55	51.1	1	5	90	0.00	29.953 
11:25	68.3	68.3	68.3	51	49.5	0	2	68	0.00	29.953 
11:30	68.4	68.4	68.4	49	48.5	1	4	68	0.00	29.955 
11:35	68.9	68.9	68.9	53	51.1	1	4	68	0.00	29.955 
11:40	69.3	69.3	69.3	50	49.8	1	4	90	0.00	29.955 
11:45	69.1	69.1	69.1	49	49.1	1	4	90	0.00	29.952 
11:50	68.9	68.9	68.9	50	49.5	0	3	90	0.00	29.952 
11:55	69.3	69.3	69.3	50	49.8	1	3	90	0.00	29.952 
12:00	69.1	69.1	69.1	48	48.6	2	5	90	0.00	29.951 
12:05	68.9	68.9	68.9	46	47.3	2	5	90	0.00	29.951 
12:10	69.3	69.3	69.3	50	49.8	0	2	90	0.00	29.951 
12:15	69.6	69.6	69.6	46	47.9	1	4	90	0.00	29.954 
12:20	69.8	69.8	69.8	49	49.8	1	3	90	0.00	29.954 
12:25	69.4	69.4	69.4	46	47.7	1	2	90	0.00	29.954 
12:30	69.1	69.1	69.1	48	48.6	0	2	90	0.00	29.946 
12:35	69.3	69.3	69.3	47	48.2	1	4	90	0.00	29.946 
12:40	69.6	69.6	69.6	48	49.0	0	1	90	0.00	29.946 
12:45	70.1	70.1	70.1	45	47.8	1	3	90	0.00	29.947 
12:50	70.1	70.1	70.1	44	47.2	1	3	90	0.00	29.947 
12:55	69.8	69.8	69.8	46	48.1	0	2	90	0.00	29.947 
13:00	69.8	69.8	69.8	44	46.9	1	2	90	0.00	29.939 
13:05	69.9	69.9	69.9	47	48.7	1	4	90	0.00	29.939 
13:10	70.4	70.4	70.4	45	48.0	1	4	90	0.00	29.939 
13:15	70.6	70.6	70.6	46	48.8	1	4	90	0.00	29.936 
13:20	70.9	70.9	70.9	46	49.1	2	4	90	0.00	29.936 
13:25	71.1	71.1	71.1	42	46.8	0	2	90	0.00	29.936 
13:30	71.5	71.5	71.5	43	47.8	1	4	90	0.00	29.930 
13:35	71.5	71.5	71.5	43	47.8	2	6	90	0.00	29.930 
13:40	71.6	71.6	71.6	48	50.9	2	4	90	0.00	29.930 
13:45	71.3	71.3	71.3	42	47.0	3	5	90	0.00	29.935 
13:50	70.9	70.9	70.9	45	48.5	1	5	90	0.00	29.935 
13:55	70.8	70.8	70.8	45	48.4	1	4	90	0.00	29.935 
14:00	71.1	71.1	71.1	44	48.1	1	3	90	0.00	29.933 
14:05	71.6	71.6	71.6	46	49.7	0	1	90	0.00	29.933 
14:10	71.8	71.8	71.8	42	47.5	1	2	90	0.00	29.933 
14:15	72.0	72.0	72.0	45	49.5	0	2	90	0.00	29.925 
14:20	72.3	72.3	72.3	41	47.3	1	3	90	0.00	29.925 
14:25	72.3	72.3	72.3	44	49.2	0	2	90	0.00	29.925 
14:30	72.8	72.8	72.8	43	49.0	1	5	90	0.00	29.922 
14:35	72.7	72.7	72.7	38	45.6	2	4	90	0.00	29.922 
14:40	72.7	72.7	72.7	43	48.9	0	2	90	0.00	29.922 
14:45	73.0	73.0	73.0	43	49.2	0	2	90	0.00	29.927 
14:50	73.3	73.3	73.3	46	51.3	1	3	90	0.00	29.927 
14:55	73.9	73.9	73.9	46	51.8	0	1	90	0.00	29.927 
15:00	73.7	73.7	73.7	39	47.2	1	3	90	0.00	29.919 
15:05	73.3	73.3	73.3	38	46.1	2	4	292	0.00	29.919 
15:10	73.2	73.2	73.2	41	48.1	0	2	292	0.00	29.919 
15:15	73.3	73.3	73.3	38	46.1	0	3	292	0.00	29.917 
15:20	73.9	73.9	73.9	40	48.0	0	1	292	0.00	29.917 
15:25	74.2	74.2	74.2	40	48.3	1	4	158	0.00	29.917 
15:30	74.2	74.2	74.2	39	47.6	1	4	45	0.00	29.906 
15:35	74.0	74.0	74.0	36	45.3	0	3	315	0.00	29.906 
15:40	74.4	74.4	74.4	38	47.1	0	1	315	0.00	29.906 
15:45	75.3	75.3	77.5	38	47.9	0	2	315	0.00	29.907 
15:50	75.6	75.6	77.6	37	47.5	0	2	315	0.00	29.907 
15:55	75.6	75.6	77.5	36	46.7	0	2	315	0.00	29.907 
16:00	75.8	75.8	77.7	40	49.7	0	1	315	0.00	29.901 
16:05	75.8	75.8	77.5	34	45.4	0	2	315	0.00	29.901 
16:10	75.8	75.8	77.5	35	46.2	0	2	315	0.00	29.901 
16:15	75.3	75.3	77.4	35	45.7	0	2	180	0.00	29.902 
16:20	75.3	75.3	77.5	37	47.2	1	3	248	0.00	29.902 
16:25	75.3	75.3	77.5	37	47.2	0	1	248	0.00	29.902 
16:30	75.4	75.4	77.5	38	48.0	0	1	248	0.00	29.890 
16:35	75.4	75.4	77.4	36	46.6	0	2	248	0.00	29.890 
16:40	75.6	75.6	77.7	40	49.6	0	2	248	0.00	29.890 
16:45	76.1	76.1	77.7	37	47.9	0	1	225	0.00	29.886 
16:50	76.1	76.1	77.8	39	49.3	0	3	225	0.00	29.886 
16:55	76.1	76.1	77.7	37	47.9	1	4	90	0.00	29.886 
17:00	76.1	76.1	77.7	36	47.2	0	3	45	0.00	29.885 
17:05	76.0	76.0	77.5	34	45.6	1	3	45	0.00	29.885 
17:10	75.8	75.8	77.4	33	44.6	1	3	45	0.00	29.885 
17:15	75.6	75.6	77.4	35	46.0	1	3	45	0.00	29.884 
17:20	75.4	75.4	77.3	33	44.3	1	4	45	0.00	29.884 
17:25	75.4	75.4	77.4	35	45.8	0	2	0	0.00	29.884 
17:30	75.6	75.6	77.4	34	45.2	0	2	315	0.00	29.888 
17:35	75.8	75.8	77.5	35	46.2	0	1	315	0.00	29.888 
17:40	76.5	76.5	77.8	35	46.8	0	1	315	0.00	29.888 
17:45	76.5	76.5	77.7	34	46.0	1	2	315	0.00	29.887 
17:50	76.1	76.1	77.6	34	45.7	0	1	315	0.00	29.887 
17:55	76.1	76.1	77.6	35	46.4	0	1	315	0.00	29.887 
18:00	76.0	76.0	77.7	38	48.5	0	2	315	0.00	29.888 
18:05	75.4	75.4	77.4	36	46.6	0	4	112	0.00	29.888 
18:10	75.1	75.1	77.3	35	45.6	0	1	90	0.00	29.888 
18:15	74.7	74.7	74.7	35	45.2	0	3	90	0.00	29.887 
18:20	74.7	74.7	74.7	35	45.2	1	3	90	0.00	29.887 
18:25	74.6	74.6	74.6	39	48.0	0	2	0	0.00	29.887 
18:30	74.6	74.6	74.6	38	47.3	0	2	0	0.00	29.888 
18:35	74.4	74.4	74.4	36	45.7	0	1	0	0.00	29.888 
18:40	74.2	74.2	74.2	37	46.2	0	2	0	0.00	29.888 
18:45	74.0	74.0	74.0	37	46.1	0	1	0	0.00	29.889 
18:50	73.9	73.9	73.9	35	44.5	0	2	0	0.00	29.889 
18:55	73.7	73.7	73.7	37	45.8	0	1	0	0.00	29.889 
19:00	73.5	73.5	73.5	36	44.9	1	3	68	0.00	29.890 
19:05	73.5	73.5	73.5	36	44.9	0	2	68	0.00	29.890 
19:10	73.3	73.3	73.3	35	44.0	0	1	68	0.00	29.890 
19:15	73.2	73.2	73.2	34	43.1	0	1	68	0.00	29.890 
19:20	73.3	73.3	73.3	34	43.2	0	1	68	0.00	29.890 
19:25	73.5	73.5	73.5	37	45.6	0	2	68	0.00	29.890 
19:30	73.5	73.5	73.5	36	44.9	0	0	---	0.00	29.891 
19:35	73.5	73.5	73.5	35	44.2	0	1	68	0.00	29.891 
19:40	73.3	73.3	73.3	37	45.4	0	1	68	0.00	29.891 
19:45	73.3	73.3	73.3	38	46.1	0	1	68	0.00	29.899 
19:50	73.2	73.2	73.2	39	46.7	0	1	68	0.00	29.899 
19:55	73.0	73.0	73.0	37	45.2	0	1	68	0.00	29.899 
20:00	72.7	72.7	72.7	36	44.2	0	2	68	0.00	29.902 
20:05	72.5	72.5	72.5	37	44.7	0	1	68	0.00	29.902 
20:10	72.3	72.3	72.3	37	44.6	0	1	68	0.00	29.902 
20:15	72.3	72.3	72.3	37	44.6	0	1	68	0.00	29.903 
20:20	72.1	72.1	72.1	40	46.4	0	1	68	0.00	29.903 
20:25	72.0	72.0	72.0	39	45.7	0	0	---	0.00	29.903 
20:30	71.8	71.8	71.8	40	46.2	0	0	---	0.00	29.909 
20:35	71.5	71.5	71.5	42	47.2	0	0	---	0.00	29.909 
20:40	71.1	71.1	71.1	41	46.2	0	0	---	0.00	29.909 
20:45	70.8	70.8	70.8	40	45.3	0	0	---	0.00	29.909 
20:50	70.4	70.4	70.4	40	44.9	0	0	---	0.00	29.909 
20:55	69.9	69.9	69.9	42	45.8	0	0	---	0.00	29.909 
21:00	69.4	69.4	69.4	43	45.9	0	0	---	0.00	29.913 
21:05	68.9	68.9	68.9	45	46.7	0	0	---	0.00	29.913 
21:10	68.4	68.4	68.4	46	46.8	0	0	---	0.00	29.913 
21:15	67.8	67.8	67.8	49	47.9	0	0	---	0.00	29.916 
21:20	67.1	67.1	67.1	49	47.3	0	0	---	0.00	29.916 
21:25	66.8	66.8	66.8	51	48.1	0	0	---	0.00	29.916 
21:30	66.1	66.1	66.1	51	47.4	0	0	---	0.00	29.918 
21:35	65.6	65.6	65.6	54	48.5	0	0	---	0.00	29.918 
21:40	65.2	65.2	65.2	57	49.6	0	0	---	0.00	29.918 
21:45	64.7	64.7	64.7	58	49.6	0	0	---	0.00	29.926 
21:50	64.3	64.3	64.3	59	49.7	0	0	---	0.00	29.926 
21:55	63.9	63.9	63.9	59	49.3	0	0	---	0.00	29.926 
22:00	63.5	63.5	63.5	60	49.4	0	0	---	0.00	29.931 
22:05	63.4	63.4	63.4	62	50.1	0	0	---	0.00	29.931 
22:10	62.9	62.9	62.9	64	50.5	0	0	---	0.00	29.931 
22:15	62.4	62.4	62.4	64	50.1	0	0	---	0.00	29.924 
22:20	62.1	62.1	62.1	65	50.2	0	0	---	0.00	29.924 
22:25	62.0	62.0	62.0	66	50.5	0	0	---	0.00	29.924 
22:30	61.6	61.6	61.6	67	50.5	0	0	---	0.00	29.934 
22:35	61.5	61.5	61.5	68	50.8	0	0	---	0.00	29.934 
22:40	61.2	61.2	61.2	69	50.9	0	0	---	0.00	29.934 
22:45	61.0	61.0	61.0	70	51.1	0	0	---	0.00	29.932 
22:50	60.7	60.7	60.7	72	51.6	0	0	---	0.00	29.932 
22:55	60.5	60.5	60.5	71	51.0	0	0	---	0.00	29.932 
23:00	60.4	60.4	60.4	70	50.6	0	0	---	0.00	29.937 
23:05	60.2	60.2	60.2	70	50.4	0	0	---	0.00	29.937 
23:10	60.2	60.2	60.2	71	50.8	0	0	---	0.00	29.937 
23:15	60.1	60.1	60.1	71	50.7	0	0	---	0.00	29.935 
23:20	59.9	59.9	59.9	72	50.8	0	0	---	0.00	29.935 
23:25	59.6	59.6	59.6	73	50.9	0	0	---	0.00	29.935 
23:30	59.5	59.5	59.5	73	50.8	0	0	---	0.00	29.936 
23:35	59.2	59.2	59.2	74	50.9	0	0	---	0.00	29.936 
23:40	59.0	59.0	59.0	75	51.1	0	0	---	0.00	29.936 
23:45	58.7	58.7	58.7	76	51.2	0	0	---	0.00	29.934 
23:50	58.4	58.4	58.4	77	51.2	0	0	---	0.00	29.934 
23:55	58.3	58.3	58.3	77	51.1	0	0	---	0.00	29.934 

CoCoRaHS
IN-AL-39
A2 Web Hosting
Creative Commons License
GoDaddy
search engine by freefind advanced

loaded 2018-11-17 15:17:58 • last modified 2010-11-18 10:43:29
Privacy PolicyDisclaimer
• wx.awcolley.com is powered by PmWiki v.2002016 •
• all content (unless otherwise noted) © 2018 A W Colley